Terminal Aerodrome Forecast
Issued by NWS

Current Version | Previous Version | Text Only | Print | Product List | Glossary On
Versions: 1 2 3 4 5 6 7 8 9 10 11 12 13 14
000
FTUS42 KTAE 051120
TAFECP
TAF
KECP 051120Z 0512/0612 22005KT P6SM VCSH SCT025
     FM051400 20007KT P6SM VCTS BKN035CB
      TEMPO 0515/0518 VRB10G20KT 3SM TSRA
     FM051900 21011KT P6SM SCT040 BKN250
     FM060900 21005KT P6SM VCTS SCT030CB=

USA.gov is the U.S. government's official web portal to all federal, state and local government web resources and services.